createdAt,value
2023-01-13T00:02:03.963Z,100105.31
2023-01-13T00:04:36.085Z,100101.88
2023-01-13T00:07:08.207Z,100095.84
2023-01-13T00:09:40.274Z,100099.41
2023-01-13T00:12:12.307Z,100102.00
2023-01-13T00:14:44.413Z,100089.00
2023-01-13T00:17:16.527Z,100077.59
2023-01-13T00:19:48.646Z,100081.09
2023-01-13T00:22:20.637Z,100094.13
2023-01-13T00:24:52.645Z,100093.38
2023-01-13T00:27:25.466Z,100096.91
2023-01-13T00:29:57.626Z,100095.13
2023-01-13T00:32:29.740Z,100095.25
2023-01-13T00:35:01.862Z,100095.19
2023-01-13T00:37:38.325Z,100099.41
2023-01-13T00:40:11.537Z,100095.94
2023-01-13T00:43:01.852Z,100095.06
2023-01-13T00:45:34.249Z,100100.25
2023-01-13T00:48:06.285Z,100104.47
2023-01-13T00:50:38.265Z,100101.00
2023-01-13T00:53:10.319Z,100103.66
2023-01-13T00:55:42.400Z,100113.03
2023-01-13T00:58:14.563Z,100093.03
2023-01-13T01:00:46.592Z,100107.97
2023-01-13T01:03:18.639Z,100105.38
2023-01-13T01:05:50.641Z,100114.94
2023-01-13T01:08:22.977Z,100119.31
2023-01-13T01:11:07.429Z,100127.25
2023-01-13T01:13:39.977Z,100129.03
2023-01-13T01:16:15.670Z,100137.88
2023-01-13T01:18:50.286Z,100140.34
2023-01-13T01:21:24.269Z,100132.59
2023-01-13T01:24:00.142Z,100142.16
2023-01-13T01:26:32.616Z,100141.34
2023-01-13T01:29:04.729Z,100154.34
2023-01-13T01:31:36.752Z,100150.13
2023-01-13T01:34:08.883Z,100161.38
2023-01-13T01:36:41.431Z,100140.50
2023-01-13T01:39:13.442Z,100139.75
2023-01-13T01:42:05.492Z,100137.25
2023-01-13T01:44:43.561Z,100150.25
2023-01-13T01:47:18.306Z,100139.88
2023-01-13T01:49:50.836Z,100139.00
2023-01-13T01:52:34.679Z,100132.09
2023-01-13T01:55:20.805Z,100132.03
2023-01-13T01:58:03.369Z,100128.59
2023-01-13T02:00:35.391Z,100139.09
2023-01-13T02:03:09.293Z,100138.28
2023-01-13T02:05:41.762Z,100129.63
2023-01-13T02:08:14.936Z,100134.09
2023-01-13T02:10:53.590Z,100130.59
2023-01-13T02:13:25.685Z,100147.91
2023-01-13T02:16:17.410Z,100147.97
2023-01-13T02:19:05.224Z,100144.53
2023-01-13T02:22:13.252Z,100151.47
2023-01-13T02:25:36.385Z,100160.09
2023-01-13T02:29:06.017Z,100153.13
2023-01-13T02:31:42.576Z,100154.06
2023-01-13T02:34:26.512Z,100164.50
2023-01-13T02:37:03.581Z,100160.22
2023-01-13T02:39:56.306Z,100166.31
2023-01-13T02:42:53.809Z,100161.19
2023-01-13T02:45:32.849Z,100170.78
2023-01-13T02:48:08.269Z,100175.09
2023-01-13T02:51:09.667Z,100164.66
2023-01-13T02:53:57.777Z,100173.28
2023-01-13T02:56:32.962Z,100177.53
2023-01-13T02:59:06.517Z,100171.47
2023-01-13T03:01:38.790Z,100167.16
2023-01-13T03:04:35.818Z,100173.22
2023-01-13T03:07:17.462Z,100160.22
2023-01-13T03:10:11.894Z,100150.69
2023-01-13T03:13:19.568Z,100145.53
2023-01-13T03:16:28.715Z,100154.16
2023-01-13T03:19:41.716Z,100162.88
2023-01-13T03:22:31.904Z,100181.94
2023-01-13T03:25:19.038Z,100165.47
2023-01-13T03:28:03.601Z,100161.97
2023-01-13T03:30:48.822Z,100158.56
2023-01-13T03:33:29.896Z,100154.28
2023-01-13T03:36:09.520Z,100154.31
2023-01-13T03:38:51.242Z,100142.25
2023-01-13T03:41:39.182Z,100134.41
2023-01-13T03:44:28.149Z,100140.47
2023-01-13T03:47:16.245Z,100127.41
2023-01-13T03:50:13.879Z,100145.59
2023-01-13T03:53:02.100Z,100132.66
2023-01-13T03:55:39.574Z,100145.72
2023-01-13T03:58:23.681Z,100153.56
2023-01-13T04:01:11.655Z,100143.09
2023-01-13T04:04:05.829Z,100150.94
2023-01-13T04:06:55.693Z,100152.66
2023-01-13T04:09:50.834Z,100157.00
2023-01-13T04:12:49.385Z,100156.16
2023-01-13T04:15:24.966Z,100162.25
2023-01-13T04:18:10.864Z,100156.13
2023-01-13T04:20:45.933Z,100156.03
2023-01-13T04:23:19.799Z,100151.63
2023-01-13T04:25:52.276Z,100151.69
2023-01-13T04:28:25.477Z,100157.75
2023-01-13T04:30:57.847Z,100156.03
2023-01-13T04:33:29.868Z,100151.69
2023-01-13T04:36:01.783Z,100140.44
2023-01-13T04:38:33.769Z,100130.78
2023-01-13T04:41:05.974Z,100132.56
2023-01-13T04:43:37.936Z,100131.63
2023-01-13T04:46:09.933Z,100122.97
2023-01-13T04:48:42.024Z,100129.03
2023-01-13T04:51:14.020Z,100131.63
2023-01-13T04:53:46.937Z,100132.59
2023-01-13T04:56:19.055Z,100122.25
2023-01-13T04:58:51.158Z,100120.53
2023-01-13T05:01:23.138Z,100109.22
2023-01-13T05:03:55.176Z,100108.28
2023-01-13T05:06:27.232Z,100110.94
2023-01-13T05:08:59.504Z,100097.91
2023-01-13T05:11:49.795Z,100110.03
2023-01-13T05:14:40.108Z,100110.97
2023-01-13T05:17:21.201Z,100107.50
2023-01-13T05:19:53.220Z,100103.19
2023-01-13T05:22:43.466Z,100094.53
2023-01-13T05:25:28.288Z,100109.28
2023-01-13T05:28:00.723Z,100104.91
2023-01-13T05:30:38.524Z,100101.41
2023-01-13T05:33:17.087Z,100110.00
2023-01-13T05:35:49.755Z,100107.28
2023-01-13T05:38:21.834Z,100105.56
2023-01-13T05:41:12.161Z,100109.00
2023-01-13T05:43:44.075Z,100103.81
2023-01-13T05:46:17.825Z,100109.03
2023-01-13T05:48:50.014Z,100104.81
2023-01-13T05:51:26.377Z,100103.06
2023-01-13T05:53:59.294Z,100097.81
2023-01-13T05:56:31.265Z,100099.53
2023-01-13T05:59:03.708Z,100095.97
2023-01-13T06:01:37.236Z,100095.88
2023-01-13T06:04:09.289Z,100095.88
2023-01-13T06:06:43.219Z,100091.56
2023-01-13T06:09:15.483Z,100091.56
2023-01-13T06:11:48.580Z,100102.84
2023-01-13T06:14:20.618Z,100097.59
2023-01-13T06:16:52.583Z,100096.75
2023-01-13T06:19:24.535Z,100105.38
2023-01-13T06:21:58.018Z,100088.88
2023-01-13T06:24:29.964Z,100096.63
2023-01-13T06:27:01.980Z,100102.66
2023-01-13T06:29:34.163Z,100110.47
2023-01-13T06:32:14.093Z,100102.66
2023-01-13T06:34:53.495Z,100100.84
2023-01-13T06:37:26.751Z,100098.34
2023-01-13T06:40:01.996Z,100088.94
2023-01-13T06:42:55.263Z,100099.28
2023-01-13T06:45:29.170Z,100097.56
2023-01-13T06:48:01.271Z,100095.00
2023-01-13T06:50:33.233Z,100100.19
2023-01-13T06:53:05.263Z,100101.19
2023-01-13T06:55:37.573Z,100103.66
2023-01-13T06:58:09.714Z,100095.97
2023-01-13T07:00:41.866Z,100101.94
2023-01-13T07:03:16.318Z,100111.56
2023-01-13T07:05:54.082Z,100122.84
2023-01-13T07:08:26.216Z,100114.31
2023-01-13T07:10:58.314Z,100115.19
2023-01-13T07:13:49.197Z,100123.88
2023-01-13T07:16:21.158Z,100115.16
2023-01-13T07:18:53.144Z,100115.13
2023-01-13T07:21:25.061Z,100129.13
2023-01-13T07:23:57.876Z,100106.56
2023-01-13T07:26:29.944Z,100103.06
2023-01-13T07:29:01.920Z,100110.09
2023-01-13T07:31:33.910Z,100112.69
2023-01-13T07:34:07.435Z,100104.00
2023-01-13T07:36:42.496Z,100103.19
2023-01-13T07:39:14.539Z,100116.16
2023-01-13T07:42:05.365Z,100106.63
2023-01-13T07:44:38.105Z,100108.41
2023-01-13T07:47:11.433Z,100125.75
2023-01-13T07:49:43.457Z,100110.16
2023-01-13T07:52:15.580Z,100130.97
2023-01-13T07:54:47.557Z,100127.56
2023-01-13T07:57:19.585Z,100119.69
2023-01-13T07:59:51.576Z,100119.66
2023-01-13T08:02:23.886Z,100121.38
2023-01-13T08:04:56.009Z,100131.81
2023-01-13T08:07:28.006Z,100126.63
2023-01-13T08:10:00.138Z,100126.56
2023-01-13T08:12:53.540Z,100127.38
2023-01-13T08:15:29.879Z,100129.19
2023-01-13T08:18:01.841Z,100124.84
2023-01-13T08:20:34.751Z,100128.31
2023-01-13T08:23:07.479Z,100126.53
2023-01-13T08:25:39.651Z,100130.84
2023-01-13T08:28:13.154Z,100133.38
2023-01-13T08:30:45.389Z,100129.84
2023-01-13T08:33:17.681Z,100134.19
2023-01-13T08:35:52.763Z,100137.69
2023-01-13T08:38:25.359Z,100143.75
2023-01-13T08:40:57.714Z,100151.53
2023-01-13T08:43:29.731Z,100142.88
2023-01-13T08:46:05.013Z,100138.50
2023-01-13T08:48:37.952Z,100134.97
2023-01-13T08:51:11.195Z,100152.44
2023-01-13T08:53:43.196Z,100140.31
2023-01-13T08:56:15.426Z,100135.88
2023-01-13T08:58:47.405Z,100140.16
2023-01-13T09:01:23.632Z,100140.91
2023-01-13T09:03:55.829Z,100139.22
2023-01-13T09:06:27.918Z,100139.22
2023-01-13T09:09:00.441Z,100140.00
2023-01-13T09:11:55.984Z,100131.34
2023-01-13T09:14:32.376Z,100142.69
2023-01-13T09:17:04.761Z,100143.53
2023-01-13T09:19:37.455Z,100138.31
2023-01-13T09:22:15.812Z,100136.56
2023-01-13T09:24:47.777Z,100139.22
2023-01-13T09:27:20.772Z,100133.88
2023-01-13T09:29:52.741Z,100126.94
2023-01-13T09:32:24.918Z,100144.38
2023-01-13T09:35:00.049Z,100133.94
2023-01-13T09:37:36.179Z,100135.75
2023-01-13T09:40:19.555Z,100132.19
2023-01-13T09:43:15.447Z,100129.56
2023-01-13T09:45:54.972Z,100145.13
2023-01-13T09:48:52.258Z,100142.44
2023-01-13T09:51:34.078Z,100160.84
2023-01-13T09:54:28.267Z,100145.19
2023-01-13T09:57:01.231Z,100145.25
2023-01-13T09:59:36.537Z,100141.66
2023-01-13T10:02:34.498Z,100143.47
2023-01-13T10:05:20.552Z,100134.78
2023-01-13T10:08:04.613Z,100133.81
2023-01-13T10:10:48.993Z,100139.91
2023-01-13T10:13:31.823Z,100153.75
2023-01-13T10:16:19.024Z,100130.16
2023-01-13T10:19:31.215Z,100141.44
2023-01-13T10:22:21.308Z,100139.78
2023-01-13T10:25:24.056Z,100149.50
2023-01-13T10:28:04.294Z,100163.69
2023-01-13T10:30:40.242Z,100172.63
2023-01-13T10:33:41.779Z,100189.19
2023-01-13T10:36:23.084Z,100196.25
2023-01-13T10:39:16.015Z,100191.97
2023-01-13T10:41:48.057Z,100203.25
2023-01-13T10:44:20.059Z,100205.81
2023-01-13T10:46:58.395Z,100190.25
2023-01-13T10:49:39.036Z,100198.91
2023-01-13T10:52:40.064Z,100185.91
2023-01-13T10:55:26.079Z,100190.22
2023-01-13T10:58:29.666Z,100181.53
2023-01-13T11:01:44.201Z,100190.22
2023-01-13T11:04:45.369Z,100189.38
2023-01-13T11:07:34.093Z,100182.34
2023-01-13T11:10:32.640Z,100185.69
2023-01-13T11:13:14.631Z,100177.00
2023-01-13T11:16:02.057Z,100183.91
2023-01-13T11:19:02.619Z,100181.38
2023-01-13T11:25:01.613Z,100178.66
2023-01-13T11:28:04.371Z,100176.06
2023-01-13T11:30:45.615Z,100181.28
2023-01-13T11:33:45.518Z,100168.97
2023-01-13T11:36:25.333Z,100171.66
2023-01-13T11:39:28.602Z,100179.56
2023-01-13T11:42:22.460Z,100177.78
2023-01-13T11:45:17.051Z,100176.84
2023-01-13T11:47:52.758Z,100170.78
2023-01-13T11:50:51.205Z,100176.91
2023-01-13T11:53:29.023Z,100169.13
2023-01-13T11:56:56.047Z,100177.78
2023-01-13T12:00:21.339Z,100185.53
2023-01-13T12:03:25.593Z,100177.63
2023-01-13T12:06:28.451Z,100191.56
2023-01-13T12:09:44.759Z,100196.00
2023-01-13T12:12:37.465Z,100207.34
2023-01-13T12:15:24.346Z,100203.06
2023-01-13T12:18:35.888Z,100194.44
2023-01-13T12:21:20.642Z,100198.84
2023-01-13T12:24:03.780Z,100208.41
2023-01-13T12:26:42.149Z,100197.16
2023-01-13T12:29:20.356Z,100205.78
2023-01-13T12:31:53.629Z,100202.28
2023-01-13T12:35:06.856Z,100209.22
2023-01-13T12:38:35.831Z,100204.81
2023-01-13T12:42:09.129Z,100208.25
2023-01-13T12:45:08.133Z,100208.19
2023-01-13T12:47:45.629Z,100206.47
2023-01-13T12:50:40.884Z,100211.72
2023-01-13T12:53:33.869Z,100207.31
2023-01-13T12:56:30.823Z,100219.50
2023-01-13T12:59:28.806Z,100208.19
2023-01-13T13:02:13.246Z,100218.53
2023-01-13T13:04:52.057Z,100215.88
2023-01-13T13:07:41.003Z,100213.25
2023-01-13T13:10:12.909Z,100209.78
2023-01-13T13:13:03.838Z,100215.03
2023-01-13T13:15:39.979Z,100215.03
2023-01-13T13:18:18.062Z,100238.44
2023-01-13T13:21:09.374Z,100219.31
2023-01-13T13:24:05.882Z,100222.72
2023-01-13T13:26:46.205Z,100219.28
2023-01-13T13:29:35.446Z,100235.72
2023-01-13T13:32:19.762Z,100235.84
2023-01-13T13:35:14.417Z,100234.13
2023-01-13T13:38:22.625Z,100238.50
2023-01-13T13:41:13.590Z,100241.94
2023-01-13T13:44:04.975Z,100236.75
2023-01-13T13:46:54.060Z,100243.81
2023-01-13T13:50:16.851Z,100259.41
2023-01-13T13:53:08.443Z,100269.88
2023-01-13T13:55:53.222Z,100255.16
2023-01-13T13:58:29.151Z,100256.91
2023-01-13T14:01:10.691Z,100257.75
2023-01-13T14:03:43.259Z,100286.38
2023-01-13T14:06:24.418Z,100270.78
2023-01-13T14:08:56.349Z,100259.50
2023-01-13T14:11:37.915Z,100281.13
2023-01-13T14:14:19.007Z,100280.25
2023-01-13T14:19:46.253Z,100300.22
2023-01-13T14:22:18.518Z,100301.06
2023-01-13T14:24:55.799Z,100298.44
2023-01-13T14:27:30.484Z,100295.00
2023-01-13T14:30:03.050Z,100301.94
2023-01-13T14:32:38.086Z,100299.34
2023-01-13T14:35:16.535Z,100310.63
2023-01-13T14:37:54.418Z,100314.06
2023-01-13T14:40:40.708Z,100313.22
2023-01-13T14:43:16.839Z,100317.50
2023-01-13T14:46:01.747Z,100335.72
2023-01-13T14:48:41.223Z,100325.28
2023-01-13T14:51:24.014Z,100327.09
2023-01-13T14:53:58.203Z,100322.75
2023-01-13T14:56:49.653Z,100324.50
2023-01-13T14:59:44.781Z,100344.44
2023-01-13T15:02:33.522Z,100336.66
2023-01-13T15:05:19.019Z,100355.72
2023-01-13T15:08:14.064Z,100354.00
2023-01-13T15:11:00.113Z,100352.25
2023-01-13T15:13:36.008Z,100372.22
2023-01-13T15:16:27.424Z,100362.69
2023-01-13T15:19:00.105Z,100373.09
2023-01-13T15:21:33.661Z,100370.47
2023-01-13T15:24:07.967Z,100367.03
2023-01-13T15:26:40.664Z,100357.47
2023-01-13T15:29:15.449Z,100356.63
2023-01-13T15:31:48.194Z,100373.97
2023-01-13T15:34:20.998Z,100370.47
2023-01-13T15:36:52.995Z,100376.56
2023-01-13T15:39:24.939Z,100388.72
2023-01-13T15:42:15.864Z,100386.13
2023-01-13T15:45:06.316Z,100387.00
2023-01-13T15:47:38.373Z,100391.34
2023-01-13T15:50:18.463Z,100389.59
2023-01-13T15:52:56.916Z,100394.78
2023-01-13T15:55:38.255Z,100391.31
2023-01-13T15:58:19.175Z,100393.03
2023-01-13T16:00:53.520Z,100401.72
2023-01-13T16:03:27.648Z,100404.31
2023-01-13T16:05:59.612Z,100426.00
2023-01-13T16:08:34.262Z,100420.81
2023-01-13T16:11:07.601Z,100425.16
2023-01-13T16:13:39.759Z,100419.97
2023-01-13T16:16:24.847Z,100439.94
2023-01-13T16:18:57.715Z,100434.72
2023-01-13T16:21:30.338Z,100433.81
2023-01-13T16:24:22.623Z,100434.72
2023-01-13T16:26:55.285Z,100439.03
2023-01-13T16:29:27.546Z,100432.97
2023-01-13T16:32:00.227Z,100446.00
2023-01-13T16:34:35.145Z,100445.13
2023-01-13T16:37:26.457Z,100458.16
2023-01-13T16:40:01.984Z,100465.06
2023-01-13T16:42:34.255Z,100454.63
2023-01-13T16:45:12.677Z,100467.66
2023-01-13T16:47:45.193Z,100475.47
2023-01-13T16:50:33.726Z,100485.91
2023-01-13T16:53:09.384Z,100501.53
2023-01-13T16:55:48.459Z,100500.66
2023-01-13T16:58:22.006Z,100510.19
2023-01-13T17:01:21.114Z,100521.47
2023-01-13T17:03:55.280Z,100522.34
2023-01-13T17:06:33.400Z,100522.34
2023-01-13T17:09:20.428Z,100534.50
2023-01-13T17:11:54.388Z,100518.00
2023-01-13T17:17:32.269Z,100546.66
2023-01-13T17:20:06.848Z,100552.72
2023-01-13T17:22:39.652Z,100554.47
2023-01-13T17:25:15.395Z,100557.06
2023-01-13T17:27:49.932Z,100559.63
2023-01-13T17:30:22.671Z,100564.88
2023-01-13T17:32:55.976Z,100568.38
2023-01-13T17:35:34.460Z,100583.97
2023-01-13T17:38:07.742Z,100603.94
2023-01-13T17:41:31.152Z,100583.91
2023-01-13T17:44:06.313Z,100587.38
2023-01-13T17:46:42.359Z,100591.69
2023-01-13T17:49:17.536Z,100589.94
2023-01-13T17:51:52.343Z,100592.47
2023-01-13T17:54:30.954Z,100600.31
2023-01-13T17:57:04.146Z,100612.47
2023-01-13T17:59:38.730Z,100621.88
2023-01-13T18:02:33.476Z,100633.88
2023-01-13T18:05:06.054Z,100646.69
2023-01-13T18:07:38.443Z,100647.50
2023-01-13T18:13:57.297Z,100641.38
2023-01-13T18:16:31.695Z,100646.59
2023-01-13T18:19:23.119Z,100657.91
2023-01-13T18:22:13.863Z,100650.19
2023-01-13T18:25:04.964Z,100640.72
2023-01-13T18:27:40.570Z,100635.63
2023-01-13T18:30:15.073Z,100640.84
2023-01-13T18:32:51.838Z,100653.00
2023-01-13T18:35:24.016Z,100651.25
2023-01-13T18:37:55.969Z,100663.38
2023-01-13T18:40:27.953Z,100674.59
2023-01-13T18:43:00.712Z,100682.44
2023-01-13T18:45:32.885Z,100669.41
2023-01-13T18:48:07.073Z,100662.50
2023-01-13T18:51:25.163Z,100670.31
2023-01-13T18:53:57.510Z,100674.59
2023-01-13T18:56:44.883Z,100678.91
2023-01-13T19:00:00.351Z,100694.50
2023-01-13T19:03:09.378Z,100707.56
2023-01-13T19:05:46.835Z,100712.81
2023-01-13T19:08:19.016Z,100711.97
2023-01-13T19:11:49.469Z,100729.31
2023-01-13T19:17:17.137Z,100729.34
2023-01-13T19:22:57.309Z,100733.75
2023-01-13T19:25:29.390Z,100739.84
2023-01-13T19:28:01.368Z,100758.88
2023-01-13T19:30:33.325Z,100753.66
2023-01-13T19:33:05.288Z,100756.28
2023-01-13T19:35:37.832Z,100753.72
2023-01-13T19:38:27.014Z,100792.81
2023-01-13T19:44:52.328Z,100779.81
2023-01-13T19:47:24.361Z,100778.09
2023-01-13T19:49:58.400Z,100781.56
2023-01-13T19:52:36.085Z,100789.38
2023-01-13T19:58:05.663Z,100802.25
2023-01-13T20:00:57.718Z,100808.34
2023-01-13T20:03:38.626Z,100808.31
2023-01-13T20:06:10.979Z,100811.75
2023-01-13T20:08:46.180Z,100806.59
2023-01-13T20:11:28.236Z,100810.03
2023-01-13T20:15:02.122Z,100790.97
2023-01-13T20:17:49.040Z,100823.84
2023-01-13T20:20:22.808Z,100823.00
2023-01-13T20:26:51.772Z,100852.44
2023-01-13T20:29:24.163Z,100864.59
2023-01-13T20:31:57.904Z,100858.56
2023-01-13T20:34:30.225Z,100868.06
2023-01-13T20:37:02.277Z,100865.44
2023-01-13T20:39:44.758Z,100879.31
2023-01-13T20:45:04.595Z,100898.53
2023-01-13T20:47:38.643Z,100889.84
2023-01-13T20:50:13.195Z,100905.44
2023-01-13T20:52:47.770Z,100895.97
2023-01-13T20:55:19.847Z,100876.91
2023-01-13T20:57:52.985Z,100867.41
2023-01-13T21:00:25.239Z,100908.16
2023-01-13T21:02:57.249Z,100939.38
2023-01-13T21:08:15.486Z,100944.88
2023-01-13T21:10:50.013Z,100944.41
2023-01-13T21:13:42.120Z,100928.78
2023-01-13T21:16:24.074Z,100934.88
2023-01-13T21:19:10.666Z,100929.78
2023-01-13T21:22:20.025Z,100920.34
2023-01-13T21:25:02.572Z,100929.06
2023-01-13T21:30:27.742Z,100936.97
2023-01-13T21:33:00.926Z,100943.97
2023-01-13T21:35:35.035Z,100946.63
2023-01-13T21:38:08.843Z,100954.53
2023-01-13T21:40:42.892Z,100956.31
2023-01-13T21:43:33.295Z,100964.16
2023-01-13T21:46:30.948Z,100967.66
2023-01-13T21:49:03.414Z,100968.50
2023-01-13T21:51:35.726Z,100981.53
2023-01-13T21:54:09.332Z,100978.06
2023-01-13T21:56:41.321Z,100985.00
2023-01-13T21:59:20.565Z,100989.34
2023-01-13T22:02:24.154Z,100989.31
2023-01-13T22:05:02.609Z,100979.69
2023-01-13T22:07:37.818Z,100994.41
2023-01-13T22:10:15.016Z,100985.63
2023-01-13T22:12:48.288Z,100998.59
2023-01-13T22:18:07.352Z,101009.91
2023-01-13T22:20:42.108Z,101009.09
2023-01-13T22:23:14.185Z,101015.94
2023-01-13T22:25:46.314Z,101018.72
2023-01-13T22:28:24.109Z,101031.59
2023-01-13T22:30:56.181Z,101018.44
2023-01-13T22:33:28.521Z,101021.03
2023-01-13T22:36:12.570Z,101021.13
2023-01-13T22:38:46.369Z,101033.34
2023-01-13T22:41:24.862Z,101037.72
2023-01-13T22:44:29.152Z,101043.78
2023-01-13T22:47:57.073Z,101050.72
2023-01-13T22:50:31.662Z,101060.25
2023-01-13T22:53:03.739Z,101064.44
2023-01-13T22:59:37.885Z,101056.53
2023-01-13T23:02:09.885Z,101060.94
2023-01-13T23:07:37.758Z,101061.84
2023-01-13T23:10:10.571Z,101064.50
2023-01-13T23:12:43.348Z,101081.97
2023-01-13T23:15:15.482Z,101082.78
2023-01-13T23:17:56.678Z,101083.72
2023-01-13T23:20:32.555Z,101081.09
2023-01-13T23:23:05.585Z,101087.22
2023-01-13T23:25:37.598Z,101089.00
2023-01-13T23:28:11.210Z,101089.03
2023-01-13T23:30:43.437Z,101091.56
2023-01-13T23:33:16.397Z,101090.53
2023-01-13T23:36:05.724Z,101098.28
2023-01-13T23:38:38.508Z,101095.69
2023-01-13T23:41:14.956Z,101092.31
2023-01-13T23:43:53.148Z,101095.69
2023-01-13T23:46:30.430Z,101095.56
2023-01-13T23:49:06.115Z,101106.84
2023-01-13T23:54:42.987Z,101106.13
2023-01-13T23:57:17.085Z,101112.19
2023-01-13T23:59:53.197Z,101110.34
